Pagina principale
METAR-TAF:

METAR-TAF

Aeroporti :

Bad Vöslau, Austria

latitudine: 47-57-52N, longitudine: 016-15-34E, altezza: 233 m

Osservazione

Il bollettino è stato emesso 13 ore e 51 minuti fa, alle 16:00 UTC
Vento 10 kt da ovest
Temperature 13°C
Umidità 33%
Pressione

METAR: LOAV 191600Z 28010KT 35KM FEW300CI 13/M03

Ora: 06:51 (05:51 UTC)

Previsione

Il bollettino è stato emesso 13 ore e 36 minuti fa, alle 16:15 UTC
Previsione valida dal 19 alle 16 UTC al 19 alle 21 UTC
Vento 10 kt da ovest
Visibilità 10 km o più
Cielo sereno

TAF: LOAV 191615Z 1916/1921 28010KT 9999 SKC

Osservazioni e previsioni meteorologiche di più di 4000 aeroporti (messaggi METAR e TAF).

Le stazioni disponibili sono rappresentate dai dischi gialli e rossi sulla carta.

Puntare il mouse per vedere il nome della stazione.

Clicca sopra per visualizzare le osservazioni e previsioni meteorologiche.

Per cambiare la mappa : fare clic sui pulsanti verdi con una croce nera per ingrandire, il pulsante verde con un trattino per diminuire, o sulla freccia verde per le mappe adiacenti.


METAR-TAF: